sensor_id;sensor_type;location;lat;lon;timestamp;P1;durP1;ratioP1;P2;durP2;ratioP2
1026;SDS011;502;48.746;9.214;2023-02-15T00:01:29;19.30;;;14.97;;
1026;SDS011;502;48.746;9.214;2023-02-15T00:03:56;20.30;;;16.23;;
1026;SDS011;502;48.746;9.214;2023-02-15T00:06:22;20.97;;;14.73;;
1026;SDS011;502;48.746;9.214;2023-02-15T00:08:49;18.43;;;14.10;;
1026;SDS011;502;48.746;9.214;2023-02-15T00:11:17;18.97;;;13.43;;
1026;SDS011;502;48.746;9.214;2023-02-15T00:14:05;20.37;;;14.17;;
1026;SDS011;502;48.746;9.214;2023-02-15T00:16:33;19.23;;;14.30;;
1026;SDS011;502;48.746;9.214;2023-02-15T00:19:00;20.40;;;14.73;;
1026;SDS011;502;48.746;9.214;2023-02-15T00:21:27;18.00;;;14.23;;
1026;SDS011;502;48.746;9.214;2023-02-15T00:23:54;18.80;;;14.70;;
1026;SDS011;502;48.746;9.214;2023-02-15T00:26:21;18.63;;;13.93;;
1026;SDS011;502;48.746;9.214;2023-02-15T00:28:48;19.57;;;15.17;;
1026;SDS011;502;48.746;9.214;2023-02-15T00:31:15;18.00;;;13.73;;
1026;SDS011;502;48.746;9.214;2023-02-15T00:33:43;19.27;;;14.73;;
1026;SDS011;502;48.746;9.214;2023-02-15T00:36:10;19.93;;;15.57;;
1026;SDS011;502;48.746;9.214;2023-02-15T00:38:37;17.50;;;13.43;;
1026;SDS011;502;48.746;9.214;2023-02-15T00:41:04;19.50;;;13.63;;
1026;SDS011;502;48.746;9.214;2023-02-15T00:43:32;19.63;;;14.63;;
1026;SDS011;502;48.746;9.214;2023-02-15T00:46:00;20.03;;;13.17;;
1026;SDS011;502;48.746;9.214;2023-02-15T00:48:27;19.27;;;14.27;;
1026;SDS011;502;48.746;9.214;2023-02-15T00:50:55;18.80;;;14.00;;
1026;SDS011;502;48.746;9.214;2023-02-15T00:53:23;19.03;;;14.70;;
1026;SDS011;502;48.746;9.214;2023-02-15T00:55:51;21.20;;;14.47;;
1026;SDS011;502;48.746;9.214;2023-02-15T00:58:18;21.87;;;14.60;;
1026;SDS011;502;48.746;9.214;2023-02-15T01:00:45;19.57;;;15.43;;
1026;SDS011;502;48.746;9.214;2023-02-15T01:03:13;21.13;;;14.20;;
1026;SDS011;502;48.746;9.214;2023-02-15T01:05:41;21.53;;;13.97;;
1026;SDS011;502;48.746;9.214;2023-02-15T01:08:09;20.53;;;14.83;;
1026;SDS011;502;48.746;9.214;2023-02-15T01:10:37;20.80;;;14.60;;
1026;SDS011;502;48.746;9.214;2023-02-15T01:13:04;21.23;;;14.77;;
1026;SDS011;502;48.746;9.214;2023-02-15T01:15:33;19.83;;;14.23;;
1026;SDS011;502;48.746;9.214;2023-02-15T01:18:01;20.77;;;15.10;;
1026;SDS011;502;48.746;9.214;2023-02-15T01:20:28;21.03;;;14.97;;
1026;SDS011;502;48.746;9.214;2023-02-15T01:22:56;21.20;;;15.10;;
1026;SDS011;502;48.746;9.214;2023-02-15T01:25:24;21.00;;;14.93;;
1026;SDS011;502;48.746;9.214;2023-02-15T01:27:51;19.97;;;14.63;;
1026;SDS011;502;48.746;9.214;2023-02-15T01:30:18;23.07;;;14.80;;
1026;SDS011;502;48.746;9.214;2023-02-15T01:32:45;24.90;;;16.80;;
1026;SDS011;502;48.746;9.214;2023-02-15T01:35:11;21.43;;;15.80;;
1026;SDS011;502;48.746;9.214;2023-02-15T01:37:38;20.80;;;15.00;;
1026;SDS011;502;48.746;9.214;2023-02-15T01:40:06;21.90;;;15.67;;
1026;SDS011;502;48.746;9.214;2023-02-15T01:42:37;20.53;;;14.50;;
1026;SDS011;502;48.746;9.214;2023-02-15T01:45:04;22.10;;;14.70;;
1026;SDS011;502;48.746;9.214;2023-02-15T01:47:33;20.70;;;15.60;;
1026;SDS011;502;48.746;9.214;2023-02-15T01:50:04;19.50;;;13.80;;
1026;SDS011;502;48.746;9.214;2023-02-15T01:52:35;19.93;;;14.13;;
1026;SDS011;502;48.746;9.214;2023-02-15T01:55:04;21.77;;;14.00;;
1026;SDS011;502;48.746;9.214;2023-02-15T01:57:31;19.23;;;13.83;;
1026;SDS011;502;48.746;9.214;2023-02-15T02:00:00;21.83;;;15.00;;
1026;SDS011;502;48.746;9.214;2023-02-15T02:02:37;20.70;;;15.30;;
1026;SDS011;502;48.746;9.214;2023-02-15T02:05:05;23.83;;;15.90;;
1026;SDS011;502;48.746;9.214;2023-02-15T02:07:34;19.00;;;14.20;;
1026;SDS011;502;48.746;9.214;2023-02-15T02:10:04;23.70;;;15.47;;
1026;SDS011;502;48.746;9.214;2023-02-15T02:12:32;22.80;;;15.53;;
1026;SDS011;502;48.746;9.214;2023-02-15T02:15:01;24.63;;;16.50;;
1026;SDS011;502;48.746;9.214;2023-02-15T02:17:30;21.37;;;15.37;;
1026;SDS011;502;48.746;9.214;2023-02-15T02:20:14;23.57;;;16.13;;
1026;SDS011;502;48.746;9.214;2023-02-15T02:31:43;22.73;;;15.50;;
1026;SDS011;502;48.746;9.214;2023-02-15T02:34:16;22.70;;;16.97;;
1026;SDS011;502;48.746;9.214;2023-02-15T02:36:45;19.80;;;15.07;;
1026;SDS011;502;48.746;9.214;2023-02-15T02:39:20;20.87;;;15.67;;
1026;SDS011;502;48.746;9.214;2023-02-15T02:41:51;21.47;;;15.77;;
1026;SDS011;502;48.746;9.214;2023-02-15T02:44:23;17.17;;;14.70;;
1026;SDS011;502;48.746;9.214;2023-02-15T02:46:53;27.07;;;16.47;;
1026;SDS011;502;48.746;9.214;2023-02-15T02:49:33;19.90;;;14.47;;
1026;SDS011;502;48.746;9.214;2023-02-15T02:52:01;22.67;;;16.20;;
1026;SDS011;502;48.746;9.214;2023-02-15T02:54:31;24.23;;;16.00;;
1026;SDS011;502;48.746;9.214;2023-02-15T02:57:00;20.50;;;15.97;;
1026;SDS011;502;48.746;9.214;2023-02-15T02:59:30;18.47;;;14.43;;
1026;SDS011;502;48.746;9.214;2023-02-15T03:02:00;22.77;;;15.77;;
1026;SDS011;502;48.746;9.214;2023-02-15T03:04:30;21.73;;;14.40;;
1026;SDS011;502;48.746;9.214;2023-02-15T03:07:02;24.47;;;16.13;;
1026;SDS011;502;48.746;9.214;2023-02-15T03:09:33;20.50;;;14.50;;
1026;SDS011;502;48.746;9.214;2023-02-15T03:12:07;23.23;;;16.70;;
1026;SDS011;502;48.746;9.214;2023-02-15T03:14:38;23.47;;;16.20;;
1026;SDS011;502;48.746;9.214;2023-02-15T03:17:05;23.37;;;16.33;;
1026;SDS011;502;48.746;9.214;2023-02-15T03:19:34;26.97;;;17.93;;
1026;SDS011;502;48.746;9.214;2023-02-15T03:22:04;21.37;;;16.40;;
1026;SDS011;502;48.746;9.214;2023-02-15T03:24:35;21.53;;;15.67;;
1026;SDS011;502;48.746;9.214;2023-02-15T03:27:06;20.23;;;15.73;;
1026;SDS011;502;48.746;9.214;2023-02-15T03:29:43;21.87;;;16.20;;
1026;SDS011;502;48.746;9.214;2023-02-15T03:32:11;24.67;;;16.87;;
1026;SDS011;502;48.746;9.214;2023-02-15T03:34:41;22.77;;;16.93;;
1026;SDS011;502;48.746;9.214;2023-02-15T03:37:09;23.77;;;16.80;;
1026;SDS011;502;48.746;9.214;2023-02-15T03:39:38;25.53;;;17.60;;
1026;SDS011;502;48.746;9.214;2023-02-15T03:42:09;21.00;;;16.50;;
1026;SDS011;502;48.746;9.214;2023-02-15T03:44:39;23.30;;;16.20;;
1026;SDS011;502;48.746;9.214;2023-02-15T03:47:11;22.90;;;16.90;;
1026;SDS011;502;48.746;9.214;2023-02-15T03:49:42;21.50;;;15.47;;
1026;SDS011;502;48.746;9.214;2023-02-15T03:52:11;23.60;;;16.77;;
1026;SDS011;502;48.746;9.214;2023-02-15T03:54:37;22.77;;;15.77;;
1026;SDS011;502;48.746;9.214;2023-02-15T03:57:13;21.93;;;16.23;;
1026;SDS011;502;48.746;9.214;2023-02-15T03:59:58;23.70;;;15.50;;
1026;SDS011;502;48.746;9.214;2023-02-15T04:02:47;22.50;;;15.47;;
1026;SDS011;502;48.746;9.214;2023-02-15T04:05:32;22.90;;;15.27;;
1026;SDS011;502;48.746;9.214;2023-02-15T04:07:59;18.67;;;15.03;;
1026;SDS011;502;48.746;9.214;2023-02-15T04:10:25;22.17;;;15.73;;
1026;SDS011;502;48.746;9.214;2023-02-15T04:13:10;21.57;;;14.83;;
1026;SDS011;502;48.746;9.214;2023-02-15T04:15:36;21.03;;;14.80;;
1026;SDS011;502;48.746;9.214;2023-02-15T04:18:26;21.27;;;15.10;;
1026;SDS011;502;48.746;9.214;2023-02-15T04:21:12;21.37;;;15.17;;
1026;SDS011;502;48.746;9.214;2023-02-15T04:23:56;22.37;;;14.47;;
1026;SDS011;502;48.746;9.214;2023-02-15T04:26:40;21.27;;;15.17;;
1026;SDS011;502;48.746;9.214;2023-02-15T04:29:06;21.27;;;14.80;;
1026;SDS011;502;48.746;9.214;2023-02-15T04:31:33;23.40;;;15.97;;
1026;SDS011;502;48.746;9.214;2023-02-15T04:34:00;24.70;;;15.90;;
1026;SDS011;502;48.746;9.214;2023-02-15T04:36:28;20.57;;;15.13;;
1026;SDS011;502;48.746;9.214;2023-02-15T04:38:55;19.40;;;13.70;;
1026;SDS011;502;48.746;9.214;2023-02-15T04:41:21;19.37;;;14.60;;
1026;SDS011;502;48.746;9.214;2023-02-15T04:43:48;24.03;;;16.30;;
1026;SDS011;502;48.746;9.214;2023-02-15T04:46:15;18.37;;;14.53;;
1026;SDS011;502;48.746;9.214;2023-02-15T04:48:41;24.50;;;16.33;;
1026;SDS011;502;48.746;9.214;2023-02-15T04:51:08;19.07;;;14.67;;
1026;SDS011;502;48.746;9.214;2023-02-15T04:53:36;24.00;;;15.73;;
1026;SDS011;502;48.746;9.214;2023-02-15T04:56:03;22.10;;;16.30;;
1026;SDS011;502;48.746;9.214;2023-02-15T04:58:30;22.83;;;16.37;;
1026;SDS011;502;48.746;9.214;2023-02-15T05:00:57;24.60;;;16.43;;
1026;SDS011;502;48.746;9.214;2023-02-15T05:03:24;23.13;;;16.60;;
1026;SDS011;502;48.746;9.214;2023-02-15T05:05:51;23.77;;;16.60;;
1026;SDS011;502;48.746;9.214;2023-02-15T05:08:17;26.23;;;16.30;;
1026;SDS011;502;48.746;9.214;2023-02-15T05:10:47;23.83;;;18.13;;
1026;SDS011;502;48.746;9.214;2023-02-15T05:13:14;27.67;;;19.10;;
1026;SDS011;502;48.746;9.214;2023-02-15T05:15:40;24.77;;;18.53;;
1026;SDS011;502;48.746;9.214;2023-02-15T05:18:07;24.23;;;17.23;;
1026;SDS011;502;48.746;9.214;2023-02-15T05:20:34;22.37;;;17.37;;
1026;SDS011;502;48.746;9.214;2023-02-15T05:23:00;22.40;;;17.50;;
1026;SDS011;502;48.746;9.214;2023-02-15T05:25:27;24.33;;;17.87;;
1026;SDS011;502;48.746;9.214;2023-02-15T05:28:12;22.70;;;17.70;;
1026;SDS011;502;48.746;9.214;2023-02-15T05:30:48;24.90;;;16.90;;
1026;SDS011;502;48.746;9.214;2023-02-15T05:33:16;21.53;;;17.90;;
1026;SDS011;502;48.746;9.214;2023-02-15T05:35:43;22.10;;;16.83;;
1026;SDS011;502;48.746;9.214;2023-02-15T05:38:10;19.93;;;17.03;;
1026;SDS011;502;48.746;9.214;2023-02-15T05:40:36;26.33;;;17.20;;
1026;SDS011;502;48.746;9.214;2023-02-15T05:43:03;23.20;;;16.53;;
1026;SDS011;502;48.746;9.214;2023-02-15T05:45:31;22.37;;;16.90;;
1026;SDS011;502;48.746;9.214;2023-02-15T05:47:58;24.50;;;16.73;;
1026;SDS011;502;48.746;9.214;2023-02-15T05:50:25;22.30;;;15.90;;
1026;SDS011;502;48.746;9.214;2023-02-15T05:52:52;22.27;;;16.60;;
1026;SDS011;502;48.746;9.214;2023-02-15T05:55:19;24.27;;;17.33;;
1026;SDS011;502;48.746;9.214;2023-02-15T05:57:45;26.23;;;17.53;;
1026;SDS011;502;48.746;9.214;2023-02-15T06:00:13;24.90;;;17.77;;
1026;SDS011;502;48.746;9.214;2023-02-15T06:02:41;25.30;;;15.87;;
1026;SDS011;502;48.746;9.214;2023-02-15T06:05:08;24.47;;;17.03;;
1026;SDS011;502;48.746;9.214;2023-02-15T06:07:35;22.40;;;15.97;;
1026;SDS011;502;48.746;9.214;2023-02-15T06:10:02;21.70;;;15.70;;
1026;SDS011;502;48.746;9.214;2023-02-15T06:12:29;23.00;;;15.80;;
1026;SDS011;502;48.746;9.214;2023-02-15T06:14:56;21.07;;;16.20;;
1026;SDS011;502;48.746;9.214;2023-02-15T06:17:22;24.73;;;16.40;;
1026;SDS011;502;48.746;9.214;2023-02-15T06:19:50;21.83;;;15.93;;
1026;SDS011;502;48.746;9.214;2023-02-15T06:22:17;21.43;;;15.13;;
1026;SDS011;502;48.746;9.214;2023-02-15T06:24:45;24.03;;;16.53;;
1026;SDS011;502;48.746;9.214;2023-02-15T06:27:12;22.67;;;16.10;;
1026;SDS011;502;48.746;9.214;2023-02-15T06:29:38;22.73;;;15.77;;
1026;SDS011;502;48.746;9.214;2023-02-15T06:32:05;23.70;;;15.97;;
1026;SDS011;502;48.746;9.214;2023-02-15T06:34:32;22.00;;;15.37;;
1026;SDS011;502;48.746;9.214;2023-02-15T06:37:00;20.70;;;15.03;;
1026;SDS011;502;48.746;9.214;2023-02-15T06:39:27;24.60;;;15.23;;
1026;SDS011;502;48.746;9.214;2023-02-15T06:41:53;20.63;;;15.60;;
1026;SDS011;502;48.746;9.214;2023-02-15T06:44:20;18.43;;;15.30;;
1026;SDS011;502;48.746;9.214;2023-02-15T06:46:47;22.30;;;14.77;;
1026;SDS011;502;48.746;9.214;2023-02-15T06:49:13;20.10;;;14.77;;
1026;SDS011;502;48.746;9.214;2023-02-15T06:51:40;21.83;;;14.60;;
1026;SDS011;502;48.746;9.214;2023-02-15T06:54:08;20.60;;;14.33;;
1026;SDS011;502;48.746;9.214;2023-02-15T06:56:35;20.23;;;14.17;;
1026;SDS011;502;48.746;9.214;2023-02-15T06:59:02;25.27;;;16.23;;
1026;SDS011;502;48.746;9.214;2023-02-15T07:01:28;26.60;;;16.60;;
1026;SDS011;502;48.746;9.214;2023-02-15T07:03:55;21.27;;;16.30;;
1026;SDS011;502;48.746;9.214;2023-02-15T07:06:22;22.60;;;16.40;;
1026;SDS011;502;48.746;9.214;2023-02-15T07:08:48;20.77;;;15.73;;
1026;SDS011;502;48.746;9.214;2023-02-15T07:11:17;24.83;;;16.60;;
1026;SDS011;502;48.746;9.214;2023-02-15T07:14:01;24.40;;;16.73;;
1026;SDS011;502;48.746;9.214;2023-02-15T07:16:27;21.97;;;15.73;;
1026;SDS011;502;48.746;9.214;2023-02-15T07:18:54;22.27;;;17.03;;
1026;SDS011;502;48.746;9.214;2023-02-15T07:21:20;24.10;;;18.03;;
1026;SDS011;502;48.746;9.214;2023-02-15T07:23:47;24.23;;;16.93;;
1026;SDS011;502;48.746;9.214;2023-02-15T07:26:14;21.27;;;16.90;;
1026;SDS011;502;48.746;9.214;2023-02-15T07:28:42;23.10;;;16.60;;
1026;SDS011;502;48.746;9.214;2023-02-15T07:31:09;21.70;;;16.77;;
1026;SDS011;502;48.746;9.214;2023-02-15T07:33:36;23.27;;;16.57;;
1026;SDS011;502;48.746;9.214;2023-02-15T07:36:03;20.53;;;15.17;;
1026;SDS011;502;48.746;9.214;2023-02-15T07:38:32;25.37;;;16.47;;
1026;SDS011;502;48.746;9.214;2023-02-15T07:41:00;22.17;;;16.00;;
1026;SDS011;502;48.746;9.214;2023-02-15T07:43:27;21.80;;;15.80;;
1026;SDS011;502;48.746;9.214;2023-02-15T07:45:57;20.90;;;15.30;;
1026;SDS011;502;48.746;9.214;2023-02-15T07:48:25;18.57;;;14.87;;
1026;SDS011;502;48.746;9.214;2023-02-15T07:50:51;24.13;;;16.03;;
1026;SDS011;502;48.746;9.214;2023-02-15T07:53:18;20.33;;;14.53;;
1026;SDS011;502;48.746;9.214;2023-02-15T07:55:45;21.90;;;16.00;;
1026;SDS011;502;48.746;9.214;2023-02-15T07:58:12;20.70;;;15.00;;
1026;SDS011;502;48.746;9.214;2023-02-15T08:00:38;19.10;;;14.43;;
1026;SDS011;502;48.746;9.214;2023-02-15T08:03:20;23.40;;;14.70;;
1026;SDS011;502;48.746;9.214;2023-02-15T08:05:54;20.77;;;16.00;;
1026;SDS011;502;48.746;9.214;2023-02-15T08:08:22;21.80;;;16.17;;
1026;SDS011;502;48.746;9.214;2023-02-15T08:10:58;18.43;;;15.57;;
1026;SDS011;502;48.746;9.214;2023-02-15T08:13:48;23.93;;;16.70;;
1026;SDS011;502;48.746;9.214;2023-02-15T08:16:24;17.60;;;13.90;;
1026;SDS011;502;48.746;9.214;2023-02-15T08:18:54;21.23;;;15.60;;
1026;SDS011;502;48.746;9.214;2023-02-15T08:21:21;19.17;;;14.43;;
1026;SDS011;502;48.746;9.214;2023-02-15T08:23:48;20.10;;;15.60;;
1026;SDS011;502;48.746;9.214;2023-02-15T08:26:15;19.63;;;15.97;;
1026;SDS011;502;48.746;9.214;2023-02-15T08:28:42;18.70;;;15.07;;
1026;SDS011;502;48.746;9.214;2023-02-15T08:31:09;19.60;;;15.10;;
1026;SDS011;502;48.746;9.214;2023-02-15T08:33:38;18.37;;;15.37;;
1026;SDS011;502;48.746;9.214;2023-02-15T08:36:08;21.20;;;16.40;;
1026;SDS011;502;48.746;9.214;2023-02-15T08:38:36;26.70;;;16.50;;
1026;SDS011;502;48.746;9.214;2023-02-15T08:41:13;19.77;;;15.70;;
1026;SDS011;502;48.746;9.214;2023-02-15T08:43:41;21.80;;;16.87;;
1026;SDS011;502;48.746;9.214;2023-02-15T08:46:09;20.33;;;15.60;;
1026;SDS011;502;48.746;9.214;2023-02-15T08:48:36;23.47;;;16.90;;
1026;SDS011;502;48.746;9.214;2023-02-15T08:51:08;17.47;;;14.00;;
1026;SDS011;502;48.746;9.214;2023-02-15T08:53:37;17.93;;;15.33;;
1026;SDS011;502;48.746;9.214;2023-02-15T08:56:04;19.00;;;14.83;;
1026;SDS011;502;48.746;9.214;2023-02-15T08:58:32;19.13;;;15.07;;
1026;SDS011;502;48.746;9.214;2023-02-15T09:00:58;21.37;;;17.50;;
1026;SDS011;502;48.746;9.214;2023-02-15T09:03:27;21.17;;;17.07;;
1026;SDS011;502;48.746;9.214;2023-02-15T09:05:56;23.90;;;17.67;;
1026;SDS011;502;48.746;9.214;2023-02-15T09:08:26;21.83;;;16.83;;
1026;SDS011;502;48.746;9.214;2023-02-15T09:10:53;19.03;;;16.30;;
1026;SDS011;502;48.746;9.214;2023-02-15T09:13:20;24.37;;;17.20;;
1026;SDS011;502;48.746;9.214;2023-02-15T09:15:47;23.50;;;17.87;;
1026;SDS011;502;48.746;9.214;2023-02-15T09:18:13;22.63;;;17.20;;
1026;SDS011;502;48.746;9.214;2023-02-15T09:20:42;23.70;;;17.07;;
1026;SDS011;502;48.746;9.214;2023-02-15T09:23:09;21.97;;;16.83;;
1026;SDS011;502;48.746;9.214;2023-02-15T09:25:37;22.33;;;17.13;;
1026;SDS011;502;48.746;9.214;2023-02-15T09:28:04;21.53;;;16.53;;
1026;SDS011;502;48.746;9.214;2023-02-15T09:30:31;20.00;;;15.60;;
1026;SDS011;502;48.746;9.214;2023-02-15T09:32:57;20.87;;;16.30;;
1026;SDS011;502;48.746;9.214;2023-02-15T09:35:24;23.77;;;18.70;;
1026;SDS011;502;48.746;9.214;2023-02-15T09:37:51;20.67;;;16.97;;
1026;SDS011;502;48.746;9.214;2023-02-15T09:40:18;22.87;;;17.37;;
1026;SDS011;502;48.746;9.214;2023-02-15T09:45:39;22.50;;;17.20;;
1026;SDS011;502;48.746;9.214;2023-02-15T09:48:21;23.83;;;17.10;;
1026;SDS011;502;48.746;9.214;2023-02-15T09:50:58;23.43;;;18.57;;
1026;SDS011;502;48.746;9.214;2023-02-15T09:53:36;23.40;;;18.50;;
1026;SDS011;502;48.746;9.214;2023-02-15T09:56:14;22.53;;;17.50;;
1026;SDS011;502;48.746;9.214;2023-02-15T09:58:49;24.50;;;19.10;;
1026;SDS011;502;48.746;9.214;2023-02-15T10:01:20;23.87;;;18.80;;
1026;SDS011;502;48.746;9.214;2023-02-15T10:03:54;27.60;;;19.27;;
1026;SDS011;502;48.746;9.214;2023-02-15T10:06:36;23.80;;;18.83;;
1026;SDS011;502;48.746;9.214;2023-02-15T10:09:11;23.60;;;18.83;;
1026;SDS011;502;48.746;9.214;2023-02-15T10:11:51;21.60;;;18.00;;
1026;SDS011;502;48.746;9.214;2023-02-15T10:17:17;23.50;;;19.17;;
1026;SDS011;502;48.746;9.214;2023-02-15T10:19:57;22.40;;;18.37;;
1026;SDS011;502;48.746;9.214;2023-02-15T10:22:34;23.20;;;19.00;;
1026;SDS011;502;48.746;9.214;2023-02-15T10:25:09;24.90;;;19.97;;
1026;SDS011;502;48.746;9.214;2023-02-15T10:27:46;24.63;;;17.47;;
1026;SDS011;502;48.746;9.214;2023-02-15T10:30:15;23.17;;;17.40;;
1026;SDS011;502;48.746;9.214;2023-02-15T10:32:48;24.60;;;18.73;;
1026;SDS011;502;48.746;9.214;2023-02-15T10:35:20;22.20;;;18.87;;
1026;SDS011;502;48.746;9.214;2023-02-15T10:37:53;24.27;;;19.43;;
1026;SDS011;502;48.746;9.214;2023-02-15T10:40:32;27.53;;;19.73;;
1026;SDS011;502;48.746;9.214;2023-02-15T10:43:08;25.00;;;18.00;;
1026;SDS011;502;48.746;9.214;2023-02-15T10:45:46;21.97;;;18.33;;
1026;SDS011;502;48.746;9.214;2023-02-15T10:48:23;22.07;;;18.43;;
1026;SDS011;502;48.746;9.214;2023-02-15T10:51:13;21.73;;;19.40;;
1026;SDS011;502;48.746;9.214;2023-02-15T10:56:30;24.67;;;19.80;;
1026;SDS011;502;48.746;9.214;2023-02-15T10:59:04;22.03;;;18.60;;
1026;SDS011;502;48.746;9.214;2023-02-15T11:01:40;24.23;;;18.90;;
1026;SDS011;502;48.746;9.214;2023-02-15T11:04:20;22.00;;;18.37;;
1026;SDS011;502;48.746;9.214;2023-02-15T11:07:12;21.87;;;18.27;;
1026;SDS011;502;48.746;9.214;2023-02-15T11:09:43;22.07;;;18.80;;
1026;SDS011;502;48.746;9.214;2023-02-15T11:12:15;24.17;;;19.23;;
1026;SDS011;502;48.746;9.214;2023-02-15T11:14:44;23.53;;;17.87;;
1026;SDS011;502;48.746;9.214;2023-02-15T11:17:16;21.97;;;19.57;;
1026;SDS011;502;48.746;9.214;2023-02-15T11:19:47;23.00;;;20.50;;
1026;SDS011;502;48.746;9.214;2023-02-15T11:22:20;25.10;;;18.30;;
1026;SDS011;502;48.746;9.214;2023-02-15T11:24:47;26.73;;;18.97;;
1026;SDS011;502;48.746;9.214;2023-02-15T11:27:19;24.73;;;21.00;;
1026;SDS011;502;48.746;9.214;2023-02-15T11:29:52;23.17;;;19.57;;
1026;SDS011;502;48.746;9.214;2023-02-15T11:32:25;20.80;;;17.37;;
1026;SDS011;502;48.746;9.214;2023-02-15T11:34:53;32.10;;;18.57;;
1026;SDS011;502;48.746;9.214;2023-02-15T11:37:24;26.57;;;20.30;;
1026;SDS011;502;48.746;9.214;2023-02-15T11:39:54;24.60;;;19.23;;
1026;SDS011;502;48.746;9.214;2023-02-15T11:42:23;22.23;;;19.63;;
1026;SDS011;502;48.746;9.214;2023-02-15T11:44:53;25.10;;;21.13;;
1026;SDS011;502;48.746;9.214;2023-02-15T11:47:24;23.07;;;20.27;;
1026;SDS011;502;48.746;9.214;2023-02-15T11:49:51;26.30;;;21.03;;
1026;SDS011;502;48.746;9.214;2023-02-15T11:52:17;27.77;;;20.90;;
1026;SDS011;502;48.746;9.214;2023-02-15T11:54:45;22.87;;;18.90;;
1026;SDS011;502;48.746;9.214;2023-02-15T11:57:15;25.33;;;20.70;;
1026;SDS011;502;48.746;9.214;2023-02-15T11:59:46;23.13;;;18.87;;
1026;SDS011;502;48.746;9.214;2023-02-15T12:02:16;26.23;;;20.93;;
1026;SDS011;502;48.746;9.214;2023-02-15T12:04:46;24.00;;;20.67;;
1026;SDS011;502;48.746;9.214;2023-02-15T12:07:17;24.10;;;20.10;;
1026;SDS011;502;48.746;9.214;2023-02-15T12:09:48;26.60;;;20.30;;
1026;SDS011;502;48.746;9.214;2023-02-15T12:12:20;22.80;;;19.93;;
1026;SDS011;502;48.746;9.214;2023-02-15T12:14:49;23.00;;;20.40;;
1026;SDS011;502;48.746;9.214;2023-02-15T12:17:17;26.13;;;22.20;;
1026;SDS011;502;48.746;9.214;2023-02-15T12:19:46;23.93;;;21.60;;
1026;SDS011;502;48.746;9.214;2023-02-15T12:22:20;26.23;;;21.30;;
1026;SDS011;502;48.746;9.214;2023-02-15T12:24:49;25.60;;;21.43;;
1026;SDS011;502;48.746;9.214;2023-02-15T12:27:17;27.10;;;21.70;;
1026;SDS011;502;48.746;9.214;2023-02-15T12:29:47;24.97;;;20.77;;
1026;SDS011;502;48.746;9.214;2023-02-15T12:32:19;23.90;;;20.30;;
1026;SDS011;502;48.746;9.214;2023-02-15T12:34:50;27.27;;;20.80;;
1026;SDS011;502;48.746;9.214;2023-02-15T12:37:18;27.50;;;21.27;;
1026;SDS011;502;48.746;9.214;2023-02-15T12:39:52;26.30;;;20.87;;
1026;SDS011;502;48.746;9.214;2023-02-15T12:42:20;25.00;;;20.67;;
1026;SDS011;502;48.746;9.214;2023-02-15T12:44:56;24.00;;;21.40;;
1026;SDS011;502;48.746;9.214;2023-02-15T12:47:25;27.00;;;20.87;;
1026;SDS011;502;48.746;9.214;2023-02-15T12:50:11;23.00;;;20.60;;
1026;SDS011;502;48.746;9.214;2023-02-15T12:52:43;25.33;;;20.70;;
1026;SDS011;502;48.746;9.214;2023-02-15T12:55:18;25.20;;;21.87;;
1026;SDS011;502;48.746;9.214;2023-02-15T12:57:46;22.87;;;20.33;;
1026;SDS011;502;48.746;9.214;2023-02-15T13:00:26;26.70;;;20.80;;
1026;SDS011;502;48.746;9.214;2023-02-15T13:02:57;24.63;;;20.00;;
1026;SDS011;502;48.746;9.214;2023-02-15T13:05:28;24.50;;;19.40;;
1026;SDS011;502;48.746;9.214;2023-02-15T13:07:58;29.57;;;21.60;;
1026;SDS011;502;48.746;9.214;2023-02-15T13:10:27;26.20;;;20.47;;
1026;SDS011;502;48.746;9.214;2023-02-15T13:12:55;23.50;;;20.50;;
1026;SDS011;502;48.746;9.214;2023-02-15T13:15:28;25.57;;;21.73;;
1026;SDS011;502;48.746;9.214;2023-02-15T13:17:57;25.60;;;21.33;;
1026;SDS011;502;48.746;9.214;2023-02-15T13:20:29;25.03;;;19.20;;
1026;SDS011;502;48.746;9.214;2023-02-15T13:22:57;31.50;;;19.83;;
1026;SDS011;502;48.746;9.214;2023-02-15T13:25:25;24.20;;;20.80;;
1026;SDS011;502;48.746;9.214;2023-02-15T13:27:55;24.80;;;20.70;;
1026;SDS011;502;48.746;9.214;2023-02-15T13:30:24;22.67;;;19.80;;
1026;SDS011;502;48.746;9.214;2023-02-15T13:32:54;25.40;;;21.00;;
1026;SDS011;502;48.746;9.214;2023-02-15T13:35:22;24.83;;;20.03;;
1026;SDS011;502;48.746;9.214;2023-02-15T13:38:02;27.97;;;23.03;;
1026;SDS011;502;48.746;9.214;2023-02-15T13:40:41;25.60;;;21.17;;
1026;SDS011;502;48.746;9.214;2023-02-15T13:43:16;24.40;;;20.27;;
1026;SDS011;502;48.746;9.214;2023-02-15T13:45:52;24.50;;;20.60;;
1026;SDS011;502;48.746;9.214;2023-02-15T13:48:26;27.00;;;21.10;;
1026;SDS011;502;48.746;9.214;2023-02-15T13:51:03;26.87;;;21.77;;
1026;SDS011;502;48.746;9.214;2023-02-15T13:53:42;24.30;;;19.83;;
1026;SDS011;502;48.746;9.214;2023-02-15T13:56:16;27.00;;;19.67;;
1026;SDS011;502;48.746;9.214;2023-02-15T13:58:52;26.77;;;19.33;;
1026;SDS011;502;48.746;9.214;2023-02-15T14:01:39;24.97;;;18.60;;
1026;SDS011;502;48.746;9.214;2023-02-15T14:04:13;23.60;;;19.27;;
1026;SDS011;502;48.746;9.214;2023-02-15T14:06:53;21.03;;;17.90;;
1026;SDS011;502;48.746;9.214;2023-02-15T14:09:30;24.70;;;19.23;;
1026;SDS011;502;48.746;9.214;2023-02-15T14:12:13;23.83;;;19.63;;
1026;SDS011;502;48.746;9.214;2023-02-15T14:14:52;21.73;;;19.03;;
1026;SDS011;502;48.746;9.214;2023-02-15T14:17:29;24.03;;;18.80;;
1026;SDS011;502;48.746;9.214;2023-02-15T14:20:01;22.57;;;17.60;;
1026;SDS011;502;48.746;9.214;2023-02-15T14:22:31;17.10;;;14.10;;
1026;SDS011;502;48.746;9.214;2023-02-15T14:25:15;17.23;;;14.03;;
1026;SDS011;502;48.746;9.214;2023-02-15T14:27:51;14.90;;;13.20;;
1026;SDS011;502;48.746;9.214;2023-02-15T14:30:23;20.10;;;14.00;;
1026;SDS011;502;48.746;9.214;2023-02-15T14:32:52;18.77;;;15.97;;
1026;SDS011;502;48.746;9.214;2023-02-15T14:35:21;17.40;;;14.37;;
1026;SDS011;502;48.746;9.214;2023-02-15T14:37:50;19.20;;;15.07;;
1026;SDS011;502;48.746;9.214;2023-02-15T14:40:27;22.70;;;14.00;;
1026;SDS011;502;48.746;9.214;2023-02-15T14:43:19;19.00;;;15.83;;
1026;SDS011;502;48.746;9.214;2023-02-15T14:45:53;18.20;;;14.50;;
1026;SDS011;502;48.746;9.214;2023-02-15T14:48:21;17.07;;;13.17;;
1026;SDS011;502;48.746;9.214;2023-02-15T14:50:51;18.80;;;13.50;;
1026;SDS011;502;48.746;9.214;2023-02-15T14:53:32;17.20;;;14.30;;
1026;SDS011;502;48.746;9.214;2023-02-15T14:56:06;16.73;;;13.20;;
1026;SDS011;502;48.746;9.214;2023-02-15T14:58:54;18.97;;;14.43;;
1026;SDS011;502;48.746;9.214;2023-02-15T15:01:25;15.03;;;13.00;;
1026;SDS011;502;48.746;9.214;2023-02-15T15:03:55;14.27;;;12.43;;
1026;SDS011;502;48.746;9.214;2023-02-15T15:06:25;16.47;;;13.20;;
1026;SDS011;502;48.746;9.214;2023-02-15T15:08:54;15.07;;;12.90;;
1026;SDS011;502;48.746;9.214;2023-02-15T15:11:39;17.87;;;13.23;;
1026;SDS011;502;48.746;9.214;2023-02-15T15:14:09;15.80;;;13.00;;
1026;SDS011;502;48.746;9.214;2023-02-15T15:16:47;17.43;;;14.10;;
1026;SDS011;502;48.746;9.214;2023-02-15T15:22:32;17.57;;;15.60;;
1026;SDS011;502;48.746;9.214;2023-02-15T15:25:00;19.47;;;15.70;;
1026;SDS011;502;48.746;9.214;2023-02-15T15:27:39;22.47;;;18.17;;
1026;SDS011;502;48.746;9.214;2023-02-15T15:33:39;19.13;;;16.90;;
1026;SDS011;502;48.746;9.214;2023-02-15T15:36:30;24.30;;;17.80;;
1026;SDS011;502;48.746;9.214;2023-02-15T15:39:21;20.70;;;15.93;;
1026;SDS011;502;48.746;9.214;2023-02-15T15:42:29;19.57;;;15.67;;
1026;SDS011;502;48.746;9.214;2023-02-15T15:47:57;18.63;;;16.13;;
1026;SDS011;502;48.746;9.214;2023-02-15T15:50:27;21.33;;;17.37;;